sensor_id;sensor_type;location;lat;lon;timestamp;P1;durP1;ratioP1;P2;durP2;ratioP2
45764;SDS011;31474;45.332;10.230;2024-03-08T00:00:50;3.42;;;3.10;;
45764;SDS011;31474;45.332;10.230;2024-03-08T00:03:16;5.82;;;3.40;;
45764;SDS011;31474;45.332;10.230;2024-03-08T00:05:42;3.53;;;3.08;;
45764;SDS011;31474;45.332;10.230;2024-03-08T00:08:07;5.68;;;4.43;;
45764;SDS011;31474;45.332;10.230;2024-03-08T00:10:35;4.30;;;3.30;;
45764;SDS011;31474;45.332;10.230;2024-03-08T00:13:00;3.58;;;3.25;;
45764;SDS011;31474;45.332;10.230;2024-03-08T00:15:29;3.80;;;3.20;;
45764;SDS011;31474;45.332;10.230;2024-03-08T00:17:56;4.45;;;3.22;;
45764;SDS011;31474;45.332;10.230;2024-03-08T00:20:21;3.55;;;2.97;;
45764;SDS011;31474;45.332;10.230;2024-03-08T00:22:48;4.50;;;3.65;;
45764;SDS011;31474;45.332;10.230;2024-03-08T00:25:14;3.55;;;3.10;;
45764;SDS011;31474;45.332;10.230;2024-03-08T00:27:39;4.07;;;2.95;;
45764;SDS011;31474;45.332;10.230;2024-03-08T00:30:08;3.28;;;2.97;;
45764;SDS011;31474;45.332;10.230;2024-03-08T00:32:34;3.63;;;3.05;;
45764;SDS011;31474;45.332;10.230;2024-03-08T00:35:01;3.40;;;3.00;;
45764;SDS011;31474;45.332;10.230;2024-03-08T00:37:26;3.30;;;3.00;;
45764;SDS011;31474;45.332;10.230;2024-03-08T00:39:52;3.58;;;3.15;;
45764;SDS011;31474;45.332;10.230;2024-03-08T00:42:18;3.38;;;3.03;;
45764;SDS011;31474;45.332;10.230;2024-03-08T00:44:44;3.45;;;3.08;;
45764;SDS011;31474;45.332;10.230;2024-03-08T00:47:10;3.50;;;2.90;;
45764;SDS011;31474;45.332;10.230;2024-03-08T00:49:36;3.83;;;2.83;;
45764;SDS011;31474;45.332;10.230;2024-03-08T00:52:03;3.88;;;3.42;;
45764;SDS011;31474;45.332;10.230;2024-03-08T00:54:31;4.05;;;3.20;;
45764;SDS011;31474;45.332;10.230;2024-03-08T00:56:57;3.83;;;3.00;;
45764;SDS011;31474;45.332;10.230;2024-03-08T00:59:22;4.55;;;3.13;;
45764;SDS011;31474;45.332;10.230;2024-03-08T01:01:48;4.03;;;2.97;;
45764;SDS011;31474;45.332;10.230;2024-03-08T01:04:13;4.15;;;3.58;;
45764;SDS011;31474;45.332;10.230;2024-03-08T01:06:39;4.05;;;3.60;;
45764;SDS011;31474;45.332;10.230;2024-03-08T01:09:05;3.03;;;2.70;;
45764;SDS011;31474;45.332;10.230;2024-03-08T01:11:32;3.67;;;3.05;;
45764;SDS011;31474;45.332;10.230;2024-03-08T01:13:59;3.80;;;3.28;;
45764;SDS011;31474;45.332;10.230;2024-03-08T01:16:24;6.35;;;3.17;;
45764;SDS011;31474;45.332;10.230;2024-03-08T01:18:50;3.65;;;3.05;;
45764;SDS011;31474;45.332;10.230;2024-03-08T01:21:16;4.00;;;3.55;;
45764;SDS011;31474;45.332;10.230;2024-03-08T01:23:42;3.38;;;2.92;;
45764;SDS011;31474;45.332;10.230;2024-03-08T01:26:07;3.60;;;3.03;;
45764;SDS011;31474;45.332;10.230;2024-03-08T01:28:33;3.83;;;3.42;;
45764;SDS011;31474;45.332;10.230;2024-03-08T01:30:59;3.78;;;3.45;;
45764;SDS011;31474;45.332;10.230;2024-03-08T01:33:25;5.03;;;2.70;;
45764;SDS011;31474;45.332;10.230;2024-03-08T01:35:52;3.40;;;3.10;;
45764;SDS011;31474;45.332;10.230;2024-03-08T01:38:18;3.28;;;2.85;;
45764;SDS011;31474;45.332;10.230;2024-03-08T01:40:46;4.10;;;2.92;;
45764;SDS011;31474;45.332;10.230;2024-03-08T01:43:16;4.22;;;3.28;;
45764;SDS011;31474;45.332;10.230;2024-03-08T01:45:46;3.13;;;2.83;;
45764;SDS011;31474;45.332;10.230;2024-03-08T01:48:13;4.03;;;3.08;;
45764;SDS011;31474;45.332;10.230;2024-03-08T01:50:39;4.03;;;3.50;;
45764;SDS011;31474;45.332;10.230;2024-03-08T01:53:06;3.03;;;2.63;;
45764;SDS011;31474;45.332;10.230;2024-03-08T01:55:33;3.95;;;3.00;;
45764;SDS011;31474;45.332;10.230;2024-03-08T01:58:00;4.88;;;3.17;;
45764;SDS011;31474;45.332;10.230;2024-03-08T02:00:28;3.40;;;2.97;;
45764;SDS011;31474;45.332;10.230;2024-03-08T02:02:55;3.58;;;3.10;;
45764;SDS011;31474;45.332;10.230;2024-03-08T02:05:21;3.25;;;2.95;;
45764;SDS011;31474;45.332;10.230;2024-03-08T02:07:48;3.90;;;3.17;;
45764;SDS011;31474;45.332;10.230;2024-03-08T02:10:14;3.40;;;2.90;;
45764;SDS011;31474;45.332;10.230;2024-03-08T02:12:40;3.78;;;3.05;;
45764;SDS011;31474;45.332;10.230;2024-03-08T02:15:06;3.83;;;3.05;;
45764;SDS011;31474;45.332;10.230;2024-03-08T02:17:32;3.30;;;2.70;;
45764;SDS011;31474;45.332;10.230;2024-03-08T02:20:01;3.25;;;2.80;;
45764;SDS011;31474;45.332;10.230;2024-03-08T02:22:28;2.92;;;2.63;;
45764;SDS011;31474;45.332;10.230;2024-03-08T02:24:54;3.58;;;2.97;;
45764;SDS011;31474;45.332;10.230;2024-03-08T02:27:23;3.75;;;3.08;;
45764;SDS011;31474;45.332;10.230;2024-03-08T02:29:56;3.25;;;2.78;;
45764;SDS011;31474;45.332;10.230;2024-03-08T02:32:22;4.60;;;3.25;;
45764;SDS011;31474;45.332;10.230;2024-03-08T02:34:48;3.55;;;3.10;;
45764;SDS011;31474;45.332;10.230;2024-03-08T02:37:14;4.10;;;3.50;;
45764;SDS011;31474;45.332;10.230;2024-03-08T02:39:43;3.15;;;2.40;;
45764;SDS011;31474;45.332;10.230;2024-03-08T02:42:09;3.55;;;2.90;;
45764;SDS011;31474;45.332;10.230;2024-03-08T02:44:34;3.30;;;2.88;;
45764;SDS011;31474;45.332;10.230;2024-03-08T02:47:00;3.22;;;2.72;;
45764;SDS011;31474;45.332;10.230;2024-03-08T02:49:26;3.15;;;2.83;;
45764;SDS011;31474;45.332;10.230;2024-03-08T02:51:52;3.47;;;3.17;;
45764;SDS011;31474;45.332;10.230;2024-03-08T02:54:18;3.70;;;3.17;;
45764;SDS011;31474;45.332;10.230;2024-03-08T02:56:45;3.17;;;2.70;;
45764;SDS011;31474;45.332;10.230;2024-03-08T02:59:11;4.43;;;2.75;;
45764;SDS011;31474;45.332;10.230;2024-03-08T03:01:38;3.38;;;2.80;;
45764;SDS011;31474;45.332;10.230;2024-03-08T03:04:04;3.47;;;2.92;;
45764;SDS011;31474;45.332;10.230;2024-03-08T03:06:29;3.95;;;3.15;;
45764;SDS011;31474;45.332;10.230;2024-03-08T03:08:56;3.60;;;3.15;;
45764;SDS011;31474;45.332;10.230;2024-03-08T03:11:22;3.08;;;2.42;;
45764;SDS011;31474;45.332;10.230;2024-03-08T03:13:48;3.90;;;2.58;;
45764;SDS011;31474;45.332;10.230;2024-03-08T03:16:17;4.65;;;3.10;;
45764;SDS011;31474;45.332;10.230;2024-03-08T03:18:46;3.30;;;2.90;;
45764;SDS011;31474;45.332;10.230;2024-03-08T03:21:12;3.35;;;2.53;;
45764;SDS011;31474;45.332;10.230;2024-03-08T03:23:41;3.33;;;2.92;;
45764;SDS011;31474;45.332;10.230;2024-03-08T03:26:09;2.70;;;2.33;;
45764;SDS011;31474;45.332;10.230;2024-03-08T03:28:38;3.83;;;3.00;;
45764;SDS011;31474;45.332;10.230;2024-03-08T03:31:06;3.00;;;2.60;;
45764;SDS011;31474;45.332;10.230;2024-03-08T03:33:32;3.33;;;2.67;;
45764;SDS011;31474;45.332;10.230;2024-03-08T03:35:59;2.95;;;2.40;;
45764;SDS011;31474;45.332;10.230;2024-03-08T03:38:26;3.05;;;2.42;;
45764;SDS011;31474;45.332;10.230;2024-03-08T03:40:52;3.40;;;3.08;;
45764;SDS011;31474;45.332;10.230;2024-03-08T03:43:22;2.80;;;2.50;;
45764;SDS011;31474;45.332;10.230;2024-03-08T03:45:51;2.92;;;2.45;;
45764;SDS011;31474;45.332;10.230;2024-03-08T03:48:16;3.25;;;2.85;;
45764;SDS011;31474;45.332;10.230;2024-03-08T03:50:42;3.28;;;2.67;;
45764;SDS011;31474;45.332;10.230;2024-03-08T03:53:07;4.28;;;3.15;;
45764;SDS011;31474;45.332;10.230;2024-03-08T03:55:33;2.85;;;2.50;;
45764;SDS011;31474;45.332;10.230;2024-03-08T03:57:59;4.97;;;3.20;;
45764;SDS011;31474;45.332;10.230;2024-03-08T04:00:26;2.95;;;2.63;;
45764;SDS011;31474;45.332;10.230;2024-03-08T04:02:52;3.78;;;3.15;;
45764;SDS011;31474;45.332;10.230;2024-03-08T04:05:18;3.03;;;2.50;;
45764;SDS011;31474;45.332;10.230;2024-03-08T04:07:43;3.45;;;2.67;;
45764;SDS011;31474;45.332;10.230;2024-03-08T04:10:10;2.15;;;1.95;;
45764;SDS011;31474;45.332;10.230;2024-03-08T04:12:36;4.03;;;2.72;;
45764;SDS011;31474;45.332;10.230;2024-03-08T04:15:02;3.33;;;2.53;;
45764;SDS011;31474;45.332;10.230;2024-03-08T04:17:29;3.00;;;2.60;;
45764;SDS011;31474;45.332;10.230;2024-03-08T04:19:56;3.00;;;2.50;;
45764;SDS011;31474;45.332;10.230;2024-03-08T04:22:22;3.30;;;2.75;;
45764;SDS011;31474;45.332;10.230;2024-03-08T04:24:47;3.35;;;2.40;;
45764;SDS011;31474;45.332;10.230;2024-03-08T04:27:13;4.13;;;2.88;;
45764;SDS011;31474;45.332;10.230;2024-03-08T04:29:39;2.95;;;2.28;;
45764;SDS011;31474;45.332;10.230;2024-03-08T04:32:05;2.95;;;2.65;;
45764;SDS011;31474;45.332;10.230;2024-03-08T04:34:32;2.58;;;2.28;;
45764;SDS011;31474;45.332;10.230;2024-03-08T04:36:59;2.88;;;2.55;;
45764;SDS011;31474;45.332;10.230;2024-03-08T04:39:26;3.15;;;2.40;;
45764;SDS011;31474;45.332;10.230;2024-03-08T04:41:53;4.15;;;2.55;;
45764;SDS011;31474;45.332;10.230;2024-03-08T04:44:22;3.17;;;2.10;;
45764;SDS011;31474;45.332;10.230;2024-03-08T04:46:49;3.58;;;2.97;;
45764;SDS011;31474;45.332;10.230;2024-03-08T04:49:15;2.47;;;2.28;;
45764;SDS011;31474;45.332;10.230;2024-03-08T04:51:41;3.60;;;2.70;;
45764;SDS011;31474;45.332;10.230;2024-03-08T04:54:06;2.20;;;2.00;;
45764;SDS011;31474;45.332;10.230;2024-03-08T04:56:32;3.00;;;2.70;;
45764;SDS011;31474;45.332;10.230;2024-03-08T04:58:58;2.78;;;2.13;;
45764;SDS011;31474;45.332;10.230;2024-03-08T05:01:24;3.22;;;2.75;;
45764;SDS011;31474;45.332;10.230;2024-03-08T05:03:49;2.63;;;2.20;;
45764;SDS011;31474;45.332;10.230;2024-03-08T05:06:16;3.55;;;2.83;;
45764;SDS011;31474;45.332;10.230;2024-03-08T05:08:42;2.40;;;2.20;;
45764;SDS011;31474;45.332;10.230;2024-03-08T05:11:07;6.80;;;2.65;;
45764;SDS011;31474;45.332;10.230;2024-03-08T05:13:34;2.55;;;2.10;;
45764;SDS011;31474;45.332;10.230;2024-03-08T05:16:00;3.05;;;2.60;;
45764;SDS011;31474;45.332;10.230;2024-03-08T05:18:25;2.25;;;2.05;;
45764;SDS011;31474;45.332;10.230;2024-03-08T05:20:53;2.67;;;2.47;;
45764;SDS011;31474;45.332;10.230;2024-03-08T05:23:19;2.67;;;2.40;;
45764;SDS011;31474;45.332;10.230;2024-03-08T05:25:45;3.17;;;2.53;;
45764;SDS011;31474;45.332;10.230;2024-03-08T05:28:14;2.75;;;2.38;;
45764;SDS011;31474;45.332;10.230;2024-03-08T05:30:39;3.80;;;2.40;;
45764;SDS011;31474;45.332;10.230;2024-03-08T05:33:05;2.90;;;2.20;;
45764;SDS011;31474;45.332;10.230;2024-03-08T05:35:31;3.22;;;2.67;;
45764;SDS011;31474;45.332;10.230;2024-03-08T05:37:57;2.83;;;2.22;;
45764;SDS011;31474;45.332;10.230;2024-03-08T05:40:23;2.65;;;2.40;;
45764;SDS011;31474;45.332;10.230;2024-03-08T05:42:49;3.58;;;2.45;;
45764;SDS011;31474;45.332;10.230;2024-03-08T05:45:15;8.38;;;6.15;;
45764;SDS011;31474;45.332;10.230;2024-03-08T05:47:40;5.50;;;4.70;;
45764;SDS011;31474;45.332;10.230;2024-03-08T05:50:07;5.72;;;4.00;;
45764;SDS011;31474;45.332;10.230;2024-03-08T05:52:35;3.83;;;2.95;;
45764;SDS011;31474;45.332;10.230;2024-03-08T05:55:02;4.28;;;3.47;;
45764;SDS011;31474;45.332;10.230;2024-03-08T05:57:32;3.28;;;2.78;;
45764;SDS011;31474;45.332;10.230;2024-03-08T05:59:57;4.38;;;2.90;;
45764;SDS011;31474;45.332;10.230;2024-03-08T06:02:23;3.38;;;2.70;;
45764;SDS011;31474;45.332;10.230;2024-03-08T06:04:48;3.55;;;2.85;;
45764;SDS011;31474;45.332;10.230;2024-03-08T06:07:14;3.70;;;2.70;;
45764;SDS011;31474;45.332;10.230;2024-03-08T06:09:42;4.25;;;2.95;;
45764;SDS011;31474;45.332;10.230;2024-03-08T06:12:11;2.90;;;2.70;;
45764;SDS011;31474;45.332;10.230;2024-03-08T06:14:36;7.47;;;4.75;;
45764;SDS011;31474;45.332;10.230;2024-03-08T06:17:02;2.72;;;2.50;;
45764;SDS011;31474;45.332;10.230;2024-03-08T06:19:32;3.50;;;2.97;;
45764;SDS011;31474;45.332;10.230;2024-03-08T06:21:58;3.33;;;3.03;;
45764;SDS011;31474;45.332;10.230;2024-03-08T06:24:23;6.20;;;3.05;;
45764;SDS011;31474;45.332;10.230;2024-03-08T06:26:49;3.30;;;2.97;;
45764;SDS011;31474;45.332;10.230;2024-03-08T06:29:14;4.97;;;3.20;;
45764;SDS011;31474;45.332;10.230;2024-03-08T06:31:40;4.28;;;2.70;;
45764;SDS011;31474;45.332;10.230;2024-03-08T06:34:06;3.15;;;2.60;;
45764;SDS011;31474;45.332;10.230;2024-03-08T06:36:34;2.90;;;2.40;;
45764;SDS011;31474;45.332;10.230;2024-03-08T06:39:02;3.55;;;2.78;;
45764;SDS011;31474;45.332;10.230;2024-03-08T06:41:34;3.42;;;2.20;;
45764;SDS011;31474;45.332;10.230;2024-03-08T06:44:02;4.22;;;3.17;;
45764;SDS011;31474;45.332;10.230;2024-03-08T06:46:28;3.70;;;2.33;;
45764;SDS011;31474;45.332;10.230;2024-03-08T06:48:54;4.00;;;2.65;;
45764;SDS011;31474;45.332;10.230;2024-03-08T06:51:19;3.92;;;2.70;;
45764;SDS011;31474;45.332;10.230;2024-03-08T06:53:45;3.70;;;2.90;;
45764;SDS011;31474;45.332;10.230;2024-03-08T06:56:11;3.75;;;2.38;;
45764;SDS011;31474;45.332;10.230;2024-03-08T06:58:36;3.88;;;2.67;;
45764;SDS011;31474;45.332;10.230;2024-03-08T07:01:02;2.72;;;1.95;;
45764;SDS011;31474;45.332;10.230;2024-03-08T07:03:32;4.20;;;3.10;;
45764;SDS011;31474;45.332;10.230;2024-03-08T07:05:58;2.78;;;1.95;;
45764;SDS011;31474;45.332;10.230;2024-03-08T07:08:23;2.63;;;2.38;;
45764;SDS011;31474;45.332;10.230;2024-03-08T07:10:49;3.53;;;2.95;;
45764;SDS011;31474;45.332;10.230;2024-03-08T07:13:15;4.82;;;2.70;;
45764;SDS011;31474;45.332;10.230;2024-03-08T07:15:42;2.80;;;2.30;;
45764;SDS011;31474;45.332;10.230;2024-03-08T07:18:08;2.92;;;2.50;;
45764;SDS011;31474;45.332;10.230;2024-03-08T07:20:39;2.97;;;2.50;;
45764;SDS011;31474;45.332;10.230;2024-03-08T07:23:08;3.50;;;2.33;;
45764;SDS011;31474;45.332;10.230;2024-03-08T07:25:34;5.13;;;2.78;;
45764;SDS011;31474;45.332;10.230;2024-03-08T07:28:00;3.60;;;2.70;;
45764;SDS011;31474;45.332;10.230;2024-03-08T07:30:26;3.22;;;2.88;;
45764;SDS011;31474;45.332;10.230;2024-03-08T07:33:10;3.72;;;2.42;;
45764;SDS011;31474;45.332;10.230;2024-03-08T07:35:37;2.47;;;2.20;;
45764;SDS011;31474;45.332;10.230;2024-03-08T07:38:06;5.00;;;3.00;;
45764;SDS011;31474;45.332;10.230;2024-03-08T07:40:38;2.42;;;2.05;;
45764;SDS011;31474;45.332;10.230;2024-03-08T07:43:08;3.45;;;2.70;;
45764;SDS011;31474;45.332;10.230;2024-03-08T07:45:35;3.13;;;2.67;;
45764;SDS011;31474;45.332;10.230;2024-03-08T07:48:05;2.15;;;1.85;;
45764;SDS011;31474;45.332;10.230;2024-03-08T07:50:37;3.60;;;2.60;;
45764;SDS011;31474;45.332;10.230;2024-03-08T07:53:09;2.65;;;2.20;;
45764;SDS011;31474;45.332;10.230;2024-03-08T07:55:35;4.07;;;2.53;;
45764;SDS011;31474;45.332;10.230;2024-03-08T07:58:01;2.83;;;2.17;;
45764;SDS011;31474;45.332;10.230;2024-03-08T08:00:28;3.35;;;2.20;;
45764;SDS011;31474;45.332;10.230;2024-03-08T08:02:55;3.38;;;2.38;;
45764;SDS011;31474;45.332;10.230;2024-03-08T08:05:21;3.85;;;2.50;;
45764;SDS011;31474;45.332;10.230;2024-03-08T08:07:46;8.13;;;2.47;;
45764;SDS011;31474;45.332;10.230;2024-03-08T08:10:12;2.85;;;2.30;;
45764;SDS011;31474;45.332;10.230;2024-03-08T08:12:49;3.30;;;2.50;;
45764;SDS011;31474;45.332;10.230;2024-03-08T08:15:16;2.25;;;2.05;;
45764;SDS011;31474;45.332;10.230;2024-03-08T08:17:43;2.63;;;2.10;;
45764;SDS011;31474;45.332;10.230;2024-03-08T08:20:12;3.25;;;2.13;;
45764;SDS011;31474;45.332;10.230;2024-03-08T08:22:41;2.92;;;2.40;;
45764;SDS011;31474;45.332;10.230;2024-03-08T08:25:08;2.80;;;2.10;;
45764;SDS011;31474;45.332;10.230;2024-03-08T08:27:36;3.05;;;2.55;;
45764;SDS011;31474;45.332;10.230;2024-03-08T08:30:02;2.63;;;1.88;;
45764;SDS011;31474;45.332;10.230;2024-03-08T08:32:33;2.38;;;2.03;;
45764;SDS011;31474;45.332;10.230;2024-03-08T08:35:02;2.65;;;2.17;;
45764;SDS011;31474;45.332;10.230;2024-03-08T08:37:29;2.72;;;2.25;;
45764;SDS011;31474;45.332;10.230;2024-03-08T08:39:56;1.80;;;1.67;;
45764;SDS011;31474;45.332;10.230;2024-03-08T08:42:22;2.95;;;2.45;;
45764;SDS011;31474;45.332;10.230;2024-03-08T08:44:48;2.45;;;2.08;;
45764;SDS011;31474;45.332;10.230;2024-03-08T08:47:15;2.67;;;2.47;;
45764;SDS011;31474;45.332;10.230;2024-03-08T08:49:45;2.25;;;2.03;;
45764;SDS011;31474;45.332;10.230;2024-03-08T08:52:14;2.78;;;2.42;;
45764;SDS011;31474;45.332;10.230;2024-03-08T08:54:41;2.83;;;2.15;;
45764;SDS011;31474;45.332;10.230;2024-03-08T08:57:07;3.63;;;2.42;;
45764;SDS011;31474;45.332;10.230;2024-03-08T08:59:36;2.38;;;1.75;;
45764;SDS011;31474;45.332;10.230;2024-03-08T09:02:05;3.42;;;2.55;;
45764;SDS011;31474;45.332;10.230;2024-03-08T09:04:32;2.95;;;2.00;;
45764;SDS011;31474;45.332;10.230;2024-03-08T09:06:57;2.85;;;2.20;;
45764;SDS011;31474;45.332;10.230;2024-03-08T09:09:23;3.38;;;1.88;;
45764;SDS011;31474;45.332;10.230;2024-03-08T09:11:50;2.72;;;2.28;;
45764;SDS011;31474;45.332;10.230;2024-03-08T09:14:16;2.75;;;1.95;;
45764;SDS011;31474;45.332;10.230;2024-03-08T09:16:42;3.03;;;2.45;;
45764;SDS011;31474;45.332;10.230;2024-03-08T09:19:07;2.13;;;1.92;;
45764;SDS011;31474;45.332;10.230;2024-03-08T09:21:35;3.58;;;2.20;;
45764;SDS011;31474;45.332;10.230;2024-03-08T09:24:01;2.33;;;1.90;;
45764;SDS011;31474;45.332;10.230;2024-03-08T09:26:27;2.88;;;2.10;;
45764;SDS011;31474;45.332;10.230;2024-03-08T09:28:53;2.42;;;2.22;;
45764;SDS011;31474;45.332;10.230;2024-03-08T09:31:20;2.70;;;2.20;;
45764;SDS011;31474;45.332;10.230;2024-03-08T09:33:46;2.25;;;1.88;;
45764;SDS011;31474;45.332;10.230;2024-03-08T09:36:12;2.67;;;2.25;;
45764;SDS011;31474;45.332;10.230;2024-03-08T09:38:39;2.47;;;2.00;;
45764;SDS011;31474;45.332;10.230;2024-03-08T09:41:05;2.33;;;2.00;;
45764;SDS011;31474;45.332;10.230;2024-03-08T09:43:30;1.85;;;1.75;;
45764;SDS011;31474;45.332;10.230;2024-03-08T09:45:56;4.15;;;2.45;;
45764;SDS011;31474;45.332;10.230;2024-03-08T09:48:23;2.38;;;1.75;;
45764;SDS011;31474;45.332;10.230;2024-03-08T09:50:51;2.38;;;1.98;;
45764;SDS011;31474;45.332;10.230;2024-03-08T09:53:16;2.42;;;2.00;;
45764;SDS011;31474;45.332;10.230;2024-03-08T09:55:43;3.20;;;2.45;;
45764;SDS011;31474;45.332;10.230;2024-03-08T09:58:13;2.30;;;1.90;;
45764;SDS011;31474;45.332;10.230;2024-03-08T10:00:46;2.67;;;2.45;;
45764;SDS011;31474;45.332;10.230;2024-03-08T10:03:12;2.83;;;1.92;;
45764;SDS011;31474;45.332;10.230;2024-03-08T10:05:40;2.72;;;2.33;;
45764;SDS011;31474;45.332;10.230;2024-03-08T10:08:06;1.95;;;1.50;;
45764;SDS011;31474;45.332;10.230;2024-03-08T10:10:35;3.10;;;2.78;;
45764;SDS011;31474;45.332;10.230;2024-03-08T10:13:00;1.67;;;1.58;;
45764;SDS011;31474;45.332;10.230;2024-03-08T10:15:29;3.15;;;2.47;;
45764;SDS011;31474;45.332;10.230;2024-03-08T10:17:58;2.08;;;1.85;;
45764;SDS011;31474;45.332;10.230;2024-03-08T10:20:24;2.33;;;2.13;;
45764;SDS011;31474;45.332;10.230;2024-03-08T10:22:51;2.67;;;2.05;;
45764;SDS011;31474;45.332;10.230;2024-03-08T10:25:18;2.58;;;2.22;;
45764;SDS011;31474;45.332;10.230;2024-03-08T10:27:44;1.60;;;1.50;;
45764;SDS011;31474;45.332;10.230;2024-03-08T10:30:11;2.47;;;2.22;;
45764;SDS011;31474;45.332;10.230;2024-03-08T10:32:40;1.70;;;1.60;;
45764;SDS011;31474;45.332;10.230;2024-03-08T10:35:06;2.42;;;2.22;;
45764;SDS011;31474;45.332;10.230;2024-03-08T10:37:40;2.30;;;2.10;;
45764;SDS011;31474;45.332;10.230;2024-03-08T10:40:13;2.40;;;1.98;;
45764;SDS011;31474;45.332;10.230;2024-03-08T10:50:59;2.60;;;2.20;;
45764;SDS011;31474;45.332;10.230;2024-03-08T10:53:27;2.25;;;2.03;;
45764;SDS011;31474;45.332;10.230;2024-03-08T10:55:57;3.08;;;2.20;;
45764;SDS011;31474;45.332;10.230;2024-03-08T10:58:24;2.80;;;2.50;;
45764;SDS011;31474;45.332;10.230;2024-03-08T11:00:56;2.33;;;1.98;;
45764;SDS011;31474;45.332;10.230;2024-03-08T11:08:54;1.65;;;1.52;;
45764;SDS011;31474;45.332;10.230;2024-03-08T11:11:26;2.90;;;2.30;;
45764;SDS011;31474;45.332;10.230;2024-03-08T11:13:57;2.00;;;1.80;;
45764;SDS011;31474;45.332;10.230;2024-03-08T11:21:57;2.85;;;2.35;;
45764;SDS011;31474;45.332;10.230;2024-03-08T11:24:23;2.85;;;2.38;;
45764;SDS011;31474;45.332;10.230;2024-03-08T11:26:49;2.97;;;2.30;;
45764;SDS011;31474;45.332;10.230;2024-03-08T11:29:37;3.28;;;2.42;;
45764;SDS011;31474;45.332;10.230;2024-03-08T11:32:11;2.67;;;2.38;;
45764;SDS011;31474;45.332;10.230;2024-03-08T11:34:42;2.10;;;1.90;;
45764;SDS011;31474;45.332;10.230;2024-03-08T11:37:11;3.28;;;2.65;;
45764;SDS011;31474;45.332;10.230;2024-03-08T11:39:47;2.55;;;2.35;;
45764;SDS011;31474;45.332;10.230;2024-03-08T11:42:14;2.05;;;1.85;;
45764;SDS011;31474;45.332;10.230;2024-03-08T11:44:42;2.97;;;2.67;;
45764;SDS011;31474;45.332;10.230;2024-03-08T11:47:09;2.30;;;2.10;;
45764;SDS011;31474;45.332;10.230;2024-03-08T11:49:36;2.75;;;2.30;;
45764;SDS011;31474;45.332;10.230;2024-03-08T11:52:02;2.85;;;2.20;;
45764;SDS011;31474;45.332;10.230;2024-03-08T11:54:28;3.38;;;2.53;;
45764;SDS011;31474;45.332;10.230;2024-03-08T11:56:55;2.13;;;1.90;;
45764;SDS011;31474;45.332;10.230;2024-03-08T11:59:27;2.78;;;2.45;;
45764;SDS011;31474;45.332;10.230;2024-03-08T12:04:28;2.05;;;1.85;;
45764;SDS011;31474;45.332;10.230;2024-03-08T12:06:56;2.97;;;2.50;;
45764;SDS011;31474;45.332;10.230;2024-03-08T12:09:25;2.42;;;1.98;;
45764;SDS011;31474;45.332;10.230;2024-03-08T12:11:51;2.60;;;2.40;;
45764;SDS011;31474;45.332;10.230;2024-03-08T12:14:17;2.10;;;1.90;;
45764;SDS011;31474;45.332;10.230;2024-03-08T12:16:43;3.95;;;2.53;;
45764;SDS011;31474;45.332;10.230;2024-03-08T12:19:09;2.60;;;2.40;;
45764;SDS011;31474;45.332;10.230;2024-03-08T12:21:35;2.95;;;2.65;;
45764;SDS011;31474;45.332;10.230;2024-03-08T12:24:05;1.77;;;1.65;;
45764;SDS011;31474;45.332;10.230;2024-03-08T12:29:17;2.88;;;2.28;;
45764;SDS011;31474;45.332;10.230;2024-03-08T12:31:52;2.38;;;2.17;;
45764;SDS011;31474;45.332;10.230;2024-03-08T12:34:30;2.25;;;1.63;;
45764;SDS011;31474;45.332;10.230;2024-03-08T12:36:57;3.20;;;2.35;;
45764;SDS011;31474;45.332;10.230;2024-03-08T12:39:23;2.17;;;1.92;;
45764;SDS011;31474;45.332;10.230;2024-03-08T12:41:52;3.20;;;2.70;;
45764;SDS011;31474;45.332;10.230;2024-03-08T12:44:19;3.65;;;2.70;;
45764;SDS011;31474;45.332;10.230;2024-03-08T12:46:46;2.45;;;2.17;;
45764;SDS011;31474;45.332;10.230;2024-03-08T12:49:13;2.72;;;2.40;;
45764;SDS011;31474;45.332;10.230;2024-03-08T12:51:42;2.10;;;1.90;;
45764;SDS011;31474;45.332;10.230;2024-03-08T12:54:08;2.78;;;2.42;;
45764;SDS011;31474;45.332;10.230;2024-03-08T12:56:34;2.95;;;2.50;;
45764;SDS011;31474;45.332;10.230;2024-03-08T12:59:02;4.28;;;3.70;;
45764;SDS011;31474;45.332;10.230;2024-03-08T13:01:30;2.30;;;2.10;;
45764;SDS011;31474;45.332;10.230;2024-03-08T13:03:59;2.90;;;2.70;;
45764;SDS011;31474;45.332;10.230;2024-03-08T13:06:28;2.42;;;2.22;;
45764;SDS011;31474;45.332;10.230;2024-03-08T13:08:56;4.07;;;2.58;;
45764;SDS011;31474;45.332;10.230;2024-03-08T13:11:23;3.17;;;2.75;;
45764;SDS011;31474;45.332;10.230;2024-03-08T13:13:50;5.00;;;2.90;;
45764;SDS011;31474;45.332;10.230;2024-03-08T13:16:17;3.35;;;2.85;;
45764;SDS011;31474;45.332;10.230;2024-03-08T13:18:44;4.25;;;3.63;;
45764;SDS011;31474;45.332;10.230;2024-03-08T13:21:11;4.90;;;4.50;;
45764;SDS011;31474;45.332;10.230;2024-03-08T13:23:39;5.47;;;4.97;;
45764;SDS011;31474;45.332;10.230;2024-03-08T13:26:09;5.00;;;4.60;;
45764;SDS011;31474;45.332;10.230;2024-03-08T13:28:44;7.47;;;6.32;;
45764;SDS011;31474;45.332;10.230;2024-03-08T13:31:10;6.00;;;5.40;;
45764;SDS011;31474;45.332;10.230;2024-03-08T13:33:36;6.80;;;5.80;;
45764;SDS011;31474;45.332;10.230;2024-03-08T13:36:04;6.88;;;5.72;;
45764;SDS011;31474;45.332;10.230;2024-03-08T13:38:49;5.22;;;4.72;;
45764;SDS011;31474;45.332;10.230;2024-03-08T13:41:15;6.28;;;5.68;;
45764;SDS011;31474;45.332;10.230;2024-03-08T13:43:42;5.35;;;4.63;;
45764;SDS011;31474;45.332;10.230;2024-03-08T13:46:08;7.70;;;5.50;;
45764;SDS011;31474;45.332;10.230;2024-03-08T13:48:35;4.90;;;4.32;;
45764;SDS011;31474;45.332;10.230;2024-03-08T13:51:06;8.82;;;5.53;;
45764;SDS011;31474;45.332;10.230;2024-03-08T13:53:32;7.05;;;4.25;;
45764;SDS011;31474;45.332;10.230;2024-03-08T13:55:59;5.60;;;4.50;;
45764;SDS011;31474;45.332;10.230;2024-03-08T13:58:26;4.90;;;3.80;;
45764;SDS011;31474;45.332;10.230;2024-03-08T14:00:52;6.00;;;5.25;;
45764;SDS011;31474;45.332;10.230;2024-03-08T14:03:18;5.18;;;4.00;;
45764;SDS011;31474;45.332;10.230;2024-03-08T14:05:43;9.27;;;5.55;;
45764;SDS011;31474;45.332;10.230;2024-03-08T14:08:10;6.63;;;4.30;;
45764;SDS011;31474;45.332;10.230;2024-03-08T14:10:37;5.75;;;4.32;;
45764;SDS011;31474;45.332;10.230;2024-03-08T14:13:03;7.15;;;4.68;;
45764;SDS011;31474;45.332;10.230;2024-03-08T14:15:33;7.25;;;4.93;;
45764;SDS011;31474;45.332;10.230;2024-03-08T14:18:06;7.13;;;4.72;;
45764;SDS011;31474;45.332;10.230;2024-03-08T14:20:32;9.98;;;4.18;;
45764;SDS011;31474;45.332;10.230;2024-03-08T14:22:57;6.13;;;3.92;;
45764;SDS011;31474;45.332;10.230;2024-03-08T14:25:23;4.85;;;3.40;;
45764;SDS011;31474;45.332;10.230;2024-03-08T14:27:50;5.03;;;3.63;;
45764;SDS011;31474;45.332;10.230;2024-03-08T14:30:18;4.75;;;3.28;;
45764;SDS011;31474;45.332;10.230;2024-03-08T14:33:07;6.55;;;3.45;;
45764;SDS011;31474;45.332;10.230;2024-03-08T14:35:34;4.75;;;4.25;;
45764;SDS011;31474;45.332;10.230;2024-03-08T14:38:01;4.28;;;3.58;;
45764;SDS011;31474;45.332;10.230;2024-03-08T14:40:27;4.25;;;3.30;;
45764;SDS011;31474;45.332;10.230;2024-03-08T14:42:53;4.65;;;3.30;;
45764;SDS011;31474;45.332;10.230;2024-03-08T14:45:19;4.80;;;3.00;;
45764;SDS011;31474;45.332;10.230;2024-03-08T14:47:47;5.70;;;3.25;;
45764;SDS011;31474;45.332;10.230;2024-03-08T14:50:17;6.30;;;3.00;;
45764;SDS011;31474;45.332;10.230;2024-03-08T14:52:44;5.32;;;3.80;;
45764;SDS011;31474;45.332;10.230;2024-03-08T14:55:13;7.00;;;3.00;;
45764;SDS011;31474;45.332;10.230;2024-03-08T14:57:45;4.65;;;3.05;;